Time;durP1;ratioP1;P1;durP2;ratioP2;P2;SDS_P1;SDS_P2;PMS_P1;PMS_P2;Temp;Humidity;BMP_temperature;BMP_pressure;BME280_temperature;BME280_humidity;BME280_pressure;Samples;Min_cycle;Max_cycle;Signal;HPM_P1;HPM_P2
2023/08/27 00:00:16;;;;;;;6.97;1.48;;;;;;;25.06;52.67;99422.06;4956492;28;20054;-94
2023/08/27 00:02:42;;;;;;;3.20;1.85;;;;;;;25.33;52.59;99460.38;4972433;28;20023;-92
2023/08/27 00:05:08;;;;;;;3.13;2.10;;;;;;;25.42;52.84;99482.19;4975606;28;20030;-94
2023/08/27 00:07:35;;;;;;;2.33;1.80;;;;;;;24.98;53.16;99418.13;4950851;28;20092;-95
2023/08/27 00:10:01;;;;;;;7.50;2.50;;;;;;;25.15;53.32;99446.47;4962881;28;20508;-91
2023/08/27 00:12:27;;;;;;;2.60;1.55;;;;;;;25.01;53.21;99425.97;4982305;28;20104;-95
2023/08/27 00:14:54;;;;;;;1.85;1.35;;;;;;;24.90;53.67;99431.38;4976698;28;20019;-87
2023/08/27 00:17:19;;;;;;;1.58;1.20;;;;;;;24.65;53.35;99389.28;4967619;28;20050;-95
2023/08/27 00:19:45;;;;;;;2.22;1.25;;;;;;;24.71;53.47;99404.97;4969731;28;20564;-94
2023/08/27 00:22:11;;;;;;;5.43;1.65;;;;;;;24.86;53.48;99410.16;4991409;28;20050;-96
2023/08/27 00:24:38;;;;;;;2.20;1.55;;;;;;;24.47;54.10;99387.00;4970258;28;20038;-96
2023/08/27 00:27:04;;;;;;;1.55;1.38;;;;;;;24.60;54.53;99388.78;4968899;28;20121;-95
2023/08/27 00:29:29;;;;;;;3.10;1.80;;;;;;;24.81;54.38;99432.94;4976361;28;20533;-94
2023/08/27 00:31:55;;;;;;;2.22;1.88;;;;;;;25.13;54.54;99485.34;4975872;28;20030;-95
2023/08/27 00:34:21;;;;;;;3.03;1.65;;;;;;;24.67;54.45;99376.53;4963533;28;20042;-96
2023/08/27 00:36:46;;;;;;;3.20;1.80;;;;;;;24.82;54.42;99393.34;4978938;28;20042;-95
2023/08/27 00:39:12;;;;;;;3.85;2.13;;;;;;;25.31;54.35;99474.97;4995255;28;20060;-96
2023/08/27 00:41:38;;;;;;;3.38;2.05;;;;;;;24.57;54.66;99375.50;4998425;28;20046;-96
2023/08/27 00:44:04;;;;;;;2.28;1.65;;;;;;;24.71;54.50;99379.84;4996291;28;20034;-96
2023/08/27 00:46:29;;;;;;;1.17;0.90;;;;;;;24.70;54.63;99392.47;4995605;28;20037;-96
2023/08/27 00:48:55;;;;;;;2.20;1.30;;;;;;;24.63;55.01;99385.84;4993200;28;20099;-95
2023/08/27 00:51:21;;;;;;;2.83;1.65;;;;;;;24.89;55.26;99444.97;4992466;28;20034;-95
2023/08/27 00:53:47;;;;;;;2.22;1.73;;;;;;;24.86;55.98;99423.66;4988575;28;20069;-95
2023/08/27 00:56:13;;;;;;;2.53;2.22;;;;;;;24.86;56.37;99431.72;4988203;28;20074;-96
2023/08/27 00:58:39;;;;;;;2.45;2.03;;;;;;;24.51;56.65;99373.28;4987004;28;20038;-96
2023/08/27 01:01:05;;;;;;;5.07;1.60;;;;;;;24.46;56.78;99362.88;4986673;28;20038;-96
2023/08/27 01:03:32;;;;;;;3.50;2.38;;;;;;;24.40;57.25;99353.41;4987614;28;20097;-95
2023/08/27 01:05:58;;;;;;;2.85;1.98;;;;;;;25.01;57.85;99449.41;4989116;28;20038;-95
2023/08/27 01:08:39;;;;;;;2.40;1.45;;;;;;;24.71;57.64;99393.34;4991733;28;20040;-96
2023/08/27 01:11:45;;;;;;;8.63;2.47;;;;;;;24.35;57.83;99360.16;5006492;28;20038;-96
2023/08/27 01:14:12;;;;;;;3.25;1.98;;;;;;;24.31;58.17;99373.88;4981220;28;20053;-95
2023/08/27 01:16:46;;;;;;;1.95;1.65;;;;;;;24.18;58.65;99372.25;5015332;28;20394;-95
2023/08/27 01:19:14;;;;;;;3.72;1.55;;;;;;;24.17;58.37;99359.72;4997760;28;20106;-96
2023/08/27 01:21:42;;;;;;;2.03;1.42;;;;;;;24.04;59.13;99357.97;5012836;28;20030;-96
2023/08/27 01:24:11;;;;;;;1.98;1.58;;;;;;;24.56;59.63;99439.38;4968066;28;20038;-96
2023/08/27 01:26:56;;;;;;;3.28;1.75;;;;;;;24.22;59.80;99398.84;4998959;28;20045;-96
2023/08/27 01:29:44;;;;;;;5.90;1.85;;;;;;;24.59;59.09;99425.69;5015799;28;20021;-96
2023/08/27 01:40:05;;;;;;;6.57;2.38;;;;;;;24.19;59.56;99360.47;4996736;28;20153;-96
2023/08/27 01:42:32;;;;;;;1.83;1.23;;;;;;;24.20;59.54;99356.81;4978712;28;20049;-96
2023/08/27 01:44:58;;;;;;;9.23;3.20;;;;;;;24.42;59.91;99374.84;4974341;28;20132;-96
2023/08/27 01:47:25;;;;;;;3.42;2.13;;;;;;;24.47;59.89;99423.91;4976883;28;20087;-96
2023/08/27 01:49:51;;;;;;;3.85;2.60;;;;;;;24.11;59.96;99352.97;4963063;28;20047;-96
2023/08/27 01:52:17;;;;;;;3.20;1.60;;;;;;;24.27;59.78;99360.75;4971333;28;20046;-96
2023/08/27 01:54:42;;;;;;;1.85;1.38;;;;;;;24.28;59.98;99376.81;4982402;28;20034;-96
2023/08/27 01:57:08;;;;;;;2.75;1.95;;;;;;;24.64;59.96;99430.72;4972364;28;20038;-95
2023/08/27 01:59:34;;;;;;;4.20;2.70;;;;;;;24.56;59.96;99423.19;4974589;28;20038;-96
2023/08/27 02:02:02;;;;;;;3.80;2.65;;;;;;;24.26;60.12;99375.19;4975497;28;20078;-94
2023/08/27 02:04:29;;;;;;;3.13;1.55;;;;;;;24.21;60.09;99363.91;4993681;28;20094;-95
2023/08/27 02:06:54;;;;;;;2.72;2.38;;;;;;;24.12;60.09;99350.16;4992838;28;20030;-92
2023/08/27 02:09:20;;;;;;;4.45;2.17;;;;;;;24.08;60.41;99337.03;4971393;28;20121;-96
2023/08/27 02:11:45;;;;;;;4.45;2.17;;;;;;;24.41;60.46;99402.81;4968694;28;20121;-94
2023/08/27 02:14:11;;;;;;;2.15;1.30;;;;;;;24.36;60.47;99386.13;4967361;28;20053;-95
2023/08/27 02:16:38;;;;;;;4.25;2.60;;;;;;;24.66;60.34;99448.47;4976807;28;20509;-96
2023/08/27 02:21:51;;;;;;;1.70;1.30;;;;;;;24.06;59.71;99347.94;5015235;28;20038;-95
2023/08/27 02:26:55;;;;;;;2.80;1.63;;;;;;;23.92;60.15;99331.97;5475197;23;20021;-93
2023/08/27 02:38:07;;;;;;;2.92;1.98;;;;;;;24.01;60.67;99358.22;5327800;23;20054;-96
2023/08/27 02:49:16;;;;;;;2.65;1.95;;;;;;;24.11;60.81;99383.50;1456797;23;20239;-89
2023/08/27 02:51:42;;;;;;;2.10;1.80;;;;;;;23.85;60.95;99347.75;4983657;28;20279;-95
2023/08/27 02:54:07;;;;;;;3.70;1.60;;;;;;;23.95;60.37;99347.91;4957346;28;20401;-96
2023/08/27 02:56:33;;;;;;;4.00;2.28;;;;;;;24.05;60.67;99369.59;4978615;28;20046;-96
2023/08/27 02:58:59;;;;;;;2.80;2.17;;;;;;;23.63;61.46;99335.00;4952168;28;20031;-95
2023/08/27 03:01:24;;;;;;;5.03;2.67;;;;;;;24.07;62.03;99441.25;4967642;28;20098;-95
2023/08/27 03:03:50;;;;;;;3.65;2.25;;;;;;;23.65;61.80;99397.69;4966793;28;20033;-95
2023/08/27 03:06:18;;;;;;;5.90;1.55;;;;;;;23.34;61.18;99356.00;4989390;28;20037;-96
2023/08/27 03:08:43;;;;;;;3.95;1.90;;;;;;;23.37;61.09;99356.66;4968708;28;20038;-96
2023/08/27 03:11:09;;;;;;;7.13;1.95;;;;;;;23.74;61.04;99406.91;5010270;23;20118;-96
2023/08/27 03:13:35;;;;;;;2.78;1.95;;;;;;;23.75;61.56;99409.47;4960649;28;20110;-92
2023/08/27 03:16:01;;;;;;;2.60;1.60;;;;;;;23.78;61.32;99406.56;4993136;28;20034;-90
2023/08/27 03:18:29;;;;;;;3.20;1.83;;;;;;;23.95;61.37;99436.78;4993674;28;20397;-92
2023/08/27 03:20:54;;;;;;;5.75;2.05;;;;;;;23.48;62.12;99379.22;4976077;28;20034;-94
2023/08/27 03:23:20;;;;;;;2.80;2.20;;;;;;;23.62;62.43;99399.72;4972588;28;20034;-95
2023/08/27 03:25:49;;;;;;;4.95;2.22;;;;;;;23.65;62.47;99418.34;4971766;28;20030;-90
2023/08/27 03:28:14;;;;;;;3.15;1.80;;;;;;;23.39;62.60;99384.31;4967673;28;20121;-93
2023/08/27 03:30:40;;;;;;;3.58;2.10;;;;;;;23.07;62.93;99352.50;4955766;28;20114;-90
2023/08/27 03:33:05;;;;;;;7.95;3.35;;;;;;;23.22;63.56;99387.38;4972005;28;20041;-91
2023/08/27 03:35:31;;;;;;;2.55;1.17;;;;;;;23.28;63.35;99394.13;4954107;28;20035;-91
2023/08/27 03:37:57;;;;;;;2.47;1.50;;;;;;;23.40;63.04;99390.53;4954842;28;20034;-91
2023/08/27 03:40:22;;;;;;;2.90;2.22;;;;;;;23.36;62.97;99387.22;4990125;28;20034;-90
2023/08/27 03:42:48;;;;;;;3.30;2.03;;;;;;;23.36;63.11;99387.22;4991418;28;20042;-90
2023/08/27 03:45:13;;;;;;;4.43;2.78;;;;;;;23.44;62.65;99412.72;4991127;28;20484;-90
2023/08/27 03:47:39;;;;;;;2.45;2.00;;;;;;;23.34;62.28;99378.41;4973167;28;20123;-90
2023/08/27 03:50:05;;;;;;;3.45;2.13;;;;;;;23.32;63.17;99403.69;4971389;28;20041;-90
2023/08/27 03:52:31;;;;;;;3.90;2.42;;;;;;;22.98;64.76;99361.22;4991308;28;20035;-89
2023/08/27 03:54:56;;;;;;;6.38;3.88;;;;;;;23.14;64.89;99406.75;4973416;28;20428;-90
2023/08/27 03:57:22;;;;;;;4.38;2.60;;;;;;;22.98;65.19;99389.97;4971950;28;20122;-88
2023/08/27 03:59:47;;;;;;;3.50;2.42;;;;;;;23.10;65.23;99396.34;4975935;28;20042;-90
2023/08/27 04:02:12;;;;;;;3.72;1.98;;;;;;;23.06;65.15;99409.97;4973701;28;20565;-89
2023/08/27 04:04:38;;;;;;;3.47;1.65;;;;;;;22.97;64.47;99372.09;4991393;28;20037;-89
2023/08/27 04:07:05;;;;;;;7.18;3.35;;;;;;;23.05;64.72;99412.78;4990902;28;20504;-89
2023/08/27 04:09:31;;;;;;;2.97;1.75;;;;;;;23.07;64.88;99418.88;4990969;28;20038;-90
2023/08/27 04:11:56;;;;;;;4.13;2.58;;;;;;;23.04;64.42;99398.44;4960439;28;20051;-88
2023/08/27 04:14:22;;;;;;;2.45;1.70;;;;;;;22.95;63.94;99374.88;4971664;28;20511;-89
2023/08/27 04:16:47;;;;;;;3.00;2.08;;;;;;;23.31;63.67;99440.53;4971587;28;20043;-89
2023/08/27 04:19:13;;;;;;;2.97;2.05;;;;;;;23.37;64.03;99442.78;4954008;28;20125;-89
2023/08/27 04:21:39;;;;;;;3.55;2.95;;;;;;;23.01;64.14;99395.97;4975940;28;20092;-88
2023/08/27 04:24:04;;;;;;;4.72;2.50;;;;;;;23.03;64.03;99394.06;4990975;28;20137;-90
2023/08/27 04:26:30;;;;;;;7.38;3.10;;;;;;;23.52;63.36;99427.31;4973425;28;20042;-88
2023/08/27 04:28:55;;;;;;;2.30;1.83;;;;;;;23.51;63.34;99435.50;4985992;28;20108;-88
2023/08/27 04:31:21;;;;;;;2.55;2.25;;;;;;;23.47;62.35;99409.81;4990631;28;20022;-88
2023/08/27 04:33:47;;;;;;;5.05;3.28;;;;;;;23.30;62.59;99401.13;4990782;28;20381;-87
2023/08/27 04:36:12;;;;;;;3.05;2.00;;;;;;;23.41;62.25;99417.34;4979871;28;20035;-88
2023/08/27 04:38:38;;;;;;;3.28;2.38;;;;;;;23.60;62.32;99459.06;4977416;28;20486;-88
2023/08/27 04:41:03;;;;;;;2.70;2.28;;;;;;;23.38;62.90;99416.72;4981024;28;20026;-89
2023/08/27 04:43:29;;;;;;;4.15;2.85;;;;;;;23.43;62.35;99409.16;4994397;28;20027;-90
2023/08/27 04:45:54;;;;;;;5.72;3.75;;;;;;;23.68;61.71;99431.59;4974580;28;20555;-89
2023/08/27 04:48:20;;;;;;;4.00;2.53;;;;;;;23.59;61.89;99423.22;4993479;28;20062;-88
2023/08/27 04:50:46;;;;;;;3.92;2.85;;;;;;;23.78;61.55;99438.88;4980706;28;20464;-90
2023/08/27 04:53:12;;;;;;;4.00;2.72;;;;;;;23.93;61.67;99458.47;4974351;28;20066;-92
2023/08/27 04:55:38;;;;;;;2.15;1.90;;;;;;;24.00;60.97;99460.69;4968772;28;20073;-95
2023/08/27 04:58:04;;;;;;;4.78;3.05;;;;;;;23.76;61.07;99410.34;4973541;28;20034;-90
2023/08/27 05:00:30;;;;;;;5.78;2.70;;;;;;;24.10;61.27;99461.75;4987336;28;20505;-91
2023/08/27 05:02:56;;;;;;;3.35;2.47;;;;;;;24.11;60.10;99440.06;4972326;28;20117;-92
2023/08/27 05:05:22;;;;;;;5.05;2.55;;;;;;;24.09;59.49;99393.50;4987767;28;20037;-91
2023/08/27 05:07:48;;;;;;;2.83;2.20;;;;;;;24.22;59.76;99408.72;4989761;28;20042;-91
2023/08/27 05:10:13;;;;;;;4.95;3.22;;;;;;;24.25;58.69;99414.78;4971819;28;20042;-95
2023/08/27 05:12:39;;;;;;;5.07;3.45;;;;;;;24.47;58.12;99423.91;4975438;28;20042;-90
2023/08/27 05:15:06;;;;;;;37.97;4.03;;;;;;;24.26;58.67;99404.84;4975779;28;20026;-89
2023/08/27 05:17:32;;;;;;;4.20;3.05;;;;;;;24.87;58.75;99461.28;4993151;28;20038;-90
2023/08/27 05:19:57;;;;;;;6.35;2.35;;;;;;;24.79;58.43;99417.84;4974571;28;20048;-88
2023/08/27 05:22:23;;;;;;;2.72;1.95;;;;;;;25.13;57.83;99459.22;4992445;28;20034;-88
2023/08/27 05:24:48;;;;;;;3.38;2.33;;;;;;;25.06;57.77;99438.25;4992935;28;20100;-87
2023/08/27 05:27:14;;;;;;;8.77;2.75;;;;;;;25.23;57.67;99445.84;4995297;28;20437;-88
2023/08/27 05:29:39;;;;;;;4.47;2.88;;;;;;;25.23;57.09;99407.22;4974985;28;20505;-88
2023/08/27 05:32:05;;;;;;;4.07;1.83;;;;;;;25.62;57.17;99456.28;4993917;28;20027;-87
2023/08/27 05:34:31;;;;;;;4.78;2.67;;;;;;;25.95;56.39;99451.78;4995855;28;20464;-88
2023/08/27 05:36:57;;;;;;;4.07;2.60;;;;;;;25.99;55.37;99456.84;4994836;28;20548;-87
2023/08/27 05:39:22;;;;;;;4.22;2.00;;;;;;;26.13;53.63;99420.53;4995423;28;20061;-88
2023/08/27 05:41:48;;;;;;;5.10;2.45;;;;;;;26.32;54.25;99429.81;4993391;28;20034;-88
2023/08/27 05:44:13;;;;;;;3.72;2.33;;;;;;;26.12;53.74;99380.13;4992827;28;20030;-87
2023/08/27 05:46:39;;;;;;;4.47;1.88;;;;;;;26.67;54.26;99447.59;4992843;28;20030;-88
2023/08/27 05:49:04;;;;;;;4.60;2.22;;;;;;;26.83;53.29;99437.16;4992585;28;20045;-88
2023/08/27 05:51:30;;;;;;;4.45;2.28;;;;;;;27.17;52.13;99450.44;4991619;28;20041;-88
2023/08/27 05:53:56;;;;;;;3.78;2.53;;;;;;;27.21;51.34;99424.81;4973624;28;20022;-90
2023/08/27 05:56:21;;;;;;;1.75;1.30;;;;;;;27.54;52.44;99430.09;4992806;28;20053;-87
2023/08/27 05:58:48;;;;;;;2.70;2.22;;;;;;;27.76;53.09;99445.25;4991673;28;20018;-88
2023/08/27 06:01:13;;;;;;;3.35;2.33;;;;;;;27.69;53.02;99407.03;4974306;28;20019;-86
2023/08/27 06:03:39;;;;;;;6.38;2.67;;;;;;;27.85;51.73;99398.31;4991638;28;20026;-87
2023/08/27 06:06:04;;;;;;;3.30;2.17;;;;;;;28.04;51.27;99443.63;4992515;28;20089;-87
2023/08/27 06:08:30;;;;;;;2.20;1.58;;;;;;;28.12;50.74;99429.34;4974599;28;20493;-85
2023/08/27 06:10:55;;;;;;;3.58;2.25;;;;;;;28.23;49.94;99440.06;4990912;28;20042;-83
2023/08/27 06:13:21;;;;;;;4.35;2.67;;;;;;;28.45;49.29;99448.91;4991440;28;20081;-83
2023/08/27 06:15:47;;;;;;;3.45;2.40;;;;;;;28.72;48.02;99456.34;4991594;28;20033;-82
2023/08/27 06:18:12;;;;;;;18.85;1.98;;;;;;;28.60;47.35;99412.22;4992069;28;20045;-83
2023/08/27 06:20:38;;;;;;;15.20;2.72;;;;;;;28.97;46.80;99443.13;4984986;28;20463;-82
2023/08/27 06:23:07;;;;;;;5.68;2.90;;;;;;;29.37;46.50;99442.00;4979087;28;20031;-84
2023/08/27 06:25:36;;;;;;;4.07;2.42;;;;;;;29.43;45.48;99420.53;4980956;28;20026;-82
2023/08/27 06:28:04;;;;;;;3.47;2.28;;;;;;;29.75;46.65;99453.66;4980715;28;20490;-82
2023/08/27 06:30:30;;;;;;;3.53;2.08;;;;;;;29.91;45.14;99420.41;4980470;28;20041;-81
2023/08/27 06:32:56;;;;;;;9.18;2.67;;;;;;;29.72;44.43;99408.63;4981280;28;20031;-82
2023/08/27 06:35:22;;;;;;;3.35;2.20;;;;;;;29.78;44.45;99427.03;4979025;28;20037;-81
2023/08/27 06:37:48;;;;;;;4.85;2.70;;;;;;;29.51;45.93;99432.50;4963234;28;20062;-82
2023/08/27 06:40:14;;;;;;;3.20;2.42;;;;;;;29.76;45.14;99436.34;4980835;28;20136;-81
2023/08/27 06:42:40;;;;;;;4.07;2.08;;;;;;;29.97;43.60;99419.78;4979780;28;20035;-84
2023/08/27 06:45:06;;;;;;;3.20;2.42;;;;;;;30.34;42.83;99444.09;4974013;28;20042;-84
2023/08/27 06:47:32;;;;;;;2.58;1.83;;;;;;;30.55;41.96;99420.31;4982176;28;20128;-84
2023/08/27 06:49:57;;;;;;;4.30;2.03;;;;;;;30.64;42.53;99432.97;4989881;28;20033;-84
2023/08/27 06:52:23;;;;;;;3.00;1.70;;;;;;;30.98;40.56;99424.03;4980699;28;20558;-84
2023/08/27 06:54:49;;;;;;;2.65;1.80;;;;;;;31.29;41.04;99445.31;4983905;28;20465;-84
2023/08/27 06:57:14;;;;;;;3.90;2.50;;;;;;;31.27;40.82;99425.56;4965376;28;20030;-86
2023/08/27 06:59:40;;;;;;;4.75;2.67;;;;;;;30.81;41.64;99423.06;4982685;28;20143;-85
2023/08/27 07:02:06;;;;;;;3.55;2.28;;;;;;;31.39;40.96;99407.91;4984911;28;20030;-87
2023/08/27 07:04:31;;;;;;;7.32;2.80;;;;;;;31.69;39.90;99443.81;4964540;28;20070;-88
2023/08/27 07:06:57;;;;;;;2.78;1.50;;;;;;;31.87;40.17;99435.47;4980736;28;20109;-87
2023/08/27 07:09:23;;;;;;;2.97;1.92;;;;;;;32.03;39.52;99418.31;4980674;28;20117;-88
2023/08/27 07:11:48;;;;;;;4.85;2.53;;;;;;;31.66;39.65;99401.38;4981863;28;20485;-87
2023/08/27 07:14:14;;;;;;;4.10;2.22;;;;;;;32.27;38.30;99420.22;4979350;28;20038;-88
2023/08/27 07:16:39;;;;;;;5.55;3.20;;;;;;;31.88;39.16;99372.59;4979105;28;20085;-86
2023/08/27 07:19:05;;;;;;;8.93;3.13;;;;;;;32.51;37.51;99408.47;4980903;28;20019;-87
2023/08/27 07:21:31;;;;;;;4.00;2.35;;;;;;;32.46;38.79;99400.78;4974661;28;20038;-87
2023/08/27 07:23:57;;;;;;;11.75;3.42;;;;;;;32.66;38.11;99392.28;4979923;28;20034;-87
2023/08/27 07:26:22;;;;;;;4.28;2.83;;;;;;;32.93;37.00;99412.84;4981089;28;20096;-90
2023/08/27 07:28:48;;;;;;;4.93;2.13;;;;;;;32.96;36.52;99376.16;4980729;28;20474;-89
2023/08/27 07:31:14;;;;;;;5.97;2.30;;;;;;;33.11;36.31;99398.97;4977660;28;20118;-91
2023/08/27 07:33:39;;;;;;;3.15;1.92;;;;;;;33.13;36.72;99391.44;4971224;28;20030;-89
2023/08/27 07:36:05;;;;;;;2.70;1.92;;;;;;;33.19;37.25;99379.00;4973378;28;20556;-88
2023/08/27 07:38:30;;;;;;;2.65;2.08;;;;;;;33.30;35.92;99400.47;4979454;28;20029;-85
2023/08/27 07:40:56;;;;;;;4.43;2.33;;;;;;;32.96;36.42;99379.72;4974831;28;20037;-84
2023/08/27 07:43:21;;;;;;;5.55;2.40;;;;;;;32.19;38.91;99371.97;4971541;28;20061;-90
2023/08/27 07:45:47;;;;;;;5.80;3.40;;;;;;;32.62;38.13;99378.06;4971518;28;20085;-92
2023/08/27 07:48:12;;;;;;;3.88;2.22;;;;;;;33.09;37.41;99389.25;4971365;28;20394;-94
2023/08/27 07:50:39;;;;;;;4.57;2.13;;;;;;;33.12;36.25;99384.31;4971565;28;20106;-92
2023/08/27 07:53:04;;;;;;;7.20;2.47;;;;;;;32.53;36.06;99400.09;4972307;28;20031;-90
2023/08/27 07:55:35;;;;;;;5.45;2.42;;;;;;;32.66;37.05;99384.94;4970136;28;20053;-89
2023/08/27 07:58:00;;;;;;;3.50;2.63;;;;;;;32.66;37.12;99374.00;4986506;28;20037;-88
2023/08/27 08:00:26;;;;;;;3.33;2.45;;;;;;;32.79;36.80;99375.34;4989447;28;20049;-86
2023/08/27 08:02:51;;;;;;;3.53;1.90;;;;;;;33.17;35.62;99362.75;4989907;28;20041;-87
2023/08/27 08:05:17;;;;;;;3.67;2.08;;;;;;;33.26;35.58;99332.69;4984147;28;20777;-88
2023/08/27 08:07:43;;;;;;;7.30;2.72;;;;;;;33.11;37.25;99368.94;4984160;28;20049;-85
2023/08/27 08:10:09;;;;;;;5.70;3.78;;;;;;;33.23;36.53;99354.91;4983827;28;20027;-89
2023/08/27 08:12:35;;;;;;;3.97;2.55;;;;;;;33.36;36.05;99377.91;4977567;28;20433;-85
2023/08/27 08:15:01;;;;;;;11.95;3.22;;;;;;;33.91;34.39;99394.38;4973470;28;20030;-87
2023/08/27 08:17:26;;;;;;;7.18;2.75;;;;;;;34.11;35.15;99391.13;4991259;28;20037;-88
2023/08/27 08:19:52;;;;;;;3.10;2.03;;;;;;;34.32;33.07;99371.31;4993567;28;20045;-87
2023/08/27 08:22:18;;;;;;;3.45;2.63;;;;;;;34.29;34.23;99368.97;4992987;28;20033;-88
2023/08/27 08:24:43;;;;;;;8.32;3.08;;;;;;;34.59;32.79;99361.66;4993241;28;21407;-89
2023/08/27 08:27:10;;;;;;;3.60;2.15;;;;;;;34.46;32.15;99354.06;4994163;28;20030;-88
2023/08/27 08:29:36;;;;;;;5.85;3.22;;;;;;;34.84;32.39;99353.22;4986382;28;20109;-86
2023/08/27 08:32:02;;;;;;;7.70;1.95;;;;;;;35.00;32.62;99374.94;4973281;28;20122;-87
2023/08/27 08:34:28;;;;;;;4.35;2.67;;;;;;;34.01;34.74;99372.25;4956366;28;20613;-87
2023/08/27 08:36:54;;;;;;;4.30;2.88;;;;;;;34.04;33.46;99337.16;4973372;28;20037;-89
2023/08/27 08:39:19;;;;;;;3.33;2.00;;;;;;;33.42;34.05;99351.75;4973972;28;20110;-89
2023/08/27 08:42:19;;;;;;;9.90;3.50;;;;;;;33.62;33.42;99354.88;4963944;28;20117;-89
2023/08/27 08:45:16;;;;;;;3.67;2.30;;;;;;;33.98;35.86;99367.13;4970627;28;20611;-88
2023/08/27 08:47:48;;;;;;;4.72;2.55;;;;;;;34.41;33.33;99372.97;4912045;29;20056;-91
2023/08/27 08:50:15;;;;;;;4.05;2.63;;;;;;;34.28;32.71;99324.34;4913264;29;20146;-88
2023/08/27 08:52:45;;;;;;;3.60;2.03;;;;;;;34.68;32.78;99349.59;4913277;29;20116;-89
2023/08/27 08:55:14;;;;;;;29.65;13.07;;;;;;;34.97;34.78;99332.34;4912501;29;20059;-87
2023/08/27 08:57:45;;;;;;;2.70;2.28;;;;;;;35.56;31.17;99352.50;4913794;29;20033;-86
2023/08/27 09:00:12;;;;;;;7.90;3.70;;;;;;;34.92;31.95;99325.72;4896963;29;20435;-88
2023/08/27 09:02:39;;;;;;;27.17;2.83;;;;;;;35.12;30.81;99317.75;4908094;29;20092;-88
2023/08/27 09:05:08;;;;;;;40.38;30.83;;;;;;;34.83;31.70;99277.56;4910805;29;20051;-89
2023/08/27 09:07:36;;;;;;;4.65;3.35;;;;;;;35.07;30.98;99310.13;4912683;29;20118;-87
2023/08/27 09:10:03;;;;;;;3.88;2.70;;;;;;;35.33;30.62;99325.22;4912956;29;20627;-84
2023/08/27 09:12:30;;;;;;;4.63;3.10;;;;;;;35.59;31.12;99318.31;4912817;29;20048;-87
2023/08/27 09:14:57;;;;;;;3.97;2.58;;;;;;;35.21;30.76;99277.41;4911591;29;20048;-87
2023/08/27 09:17:23;;;;;;;14.23;4.20;;;;;;;35.37;28.86;99331.16;4912082;29;20092;-89
2023/08/27 09:19:51;;;;;;;3.78;2.28;;;;;;;35.00;29.44;99294.63;4913371;29;20107;-87
2023/08/27 09:22:19;;;;;;;2.63;1.77;;;;;;;35.01;29.29;99307.31;4913348;29;20040;-88
2023/08/27 09:24:45;;;;;;;3.75;2.20;;;;;;;34.95;28.26;99287.81;4955807;28;20050;-88
2023/08/27 09:27:15;;;;;;;5.40;3.05;;;;;;;35.35;29.19;99314.06;4974603;28;20029;-89
2023/08/27 09:29:42;;;;;;;2.80;1.65;;;;;;;35.40;29.05;99319.81;4982402;28;20466;-89
2023/08/27 09:32:18;;;;;;;2.95;1.80;;;;;;;35.10;30.89;99278.75;4980903;28;20031;-88
2023/08/27 09:34:43;;;;;;;4.18;2.40;;;;;;;35.29;29.14;99288.25;4981080;28;20057;-89
2023/08/27 09:37:08;;;;;;;2.95;1.98;;;;;;;34.98;28.88;99297.56;4977134;28;20511;-87
2023/08/27 09:39:34;;;;;;;1.80;1.40;;;;;;;35.08;28.95;99284.41;4979570;28;20039;-86
2023/08/27 09:42:00;;;;;;;8.38;2.83;;;;;;;35.25;29.26;99273.22;4977517;28;20026;-88
2023/08/27 09:44:25;;;;;;;3.38;1.98;;;;;;;35.25;30.03;99251.28;4982845;28;20045;-86
2023/08/27 09:46:51;;;;;;;3.75;1.88;;;;;;;34.97;28.04;99247.41;4992647;28;20477;-87
2023/08/27 09:49:22;;;;;;;3.00;1.80;;;;;;;35.04;28.31;99274.88;4985581;28;20085;-88
2023/08/27 09:51:47;;;;;;;4.85;2.25;;;;;;;35.13;28.57;99279.19;4980957;28;20158;-87
2023/08/27 09:54:15;;;;;;;2.67;1.85;;;;;;;34.71;29.70;99272.53;4983391;28;20525;-89
2023/08/27 09:56:45;;;;;;;3.25;1.83;;;;;;;34.07;29.80;99271.13;4980239;28;20073;-89
2023/08/27 09:59:17;;;;;;;3.42;1.95;;;;;;;33.89;28.68;99276.94;4981548;28;20034;-87
2023/08/27 10:01:47;;;;;;;3.60;1.92;;;;;;;33.84;28.59;99259.38;4977293;28;20124;-86
2023/08/27 10:04:13;;;;;;;2.60;1.70;;;;;;;33.67;29.19;99207.50;4977254;28;20056;-87
2023/08/27 10:06:38;;;;;;;4.05;2.05;;;;;;;34.23;30.30;99245.50;4982191;28;20549;-87
2023/08/27 10:09:04;;;;;;;1.60;1.35;;;;;;;34.34;29.00;99252.44;4985270;28;20489;-84
2023/08/27 10:11:32;;;;;;;3.13;1.63;;;;;;;34.48;29.07;99242.50;4982536;28;20382;-86
2023/08/27 10:13:59;;;;;;;2.35;1.70;;;;;;;34.60;28.52;99262.03;4977109;28;20424;-88
2023/08/27 10:16:28;;;;;;;3.85;1.58;;;;;;;34.48;28.83;99230.69;4963203;28;20414;-88
2023/08/27 10:18:54;;;;;;;3.28;2.30;;;;;;;34.51;28.96;99244.00;4982173;28;20059;-88
2023/08/27 10:21:19;;;;;;;4.88;2.28;;;;;;;34.55;30.07;99193.31;4981854;28;20237;-89
2023/08/27 10:23:46;;;;;;;4.03;2.58;;;;;;;34.67;28.71;99242.97;4976420;28;20134;-88
2023/08/27 10:26:14;;;;;;;5.53;2.30;;;;;;;34.40;29.17;99229.78;4983753;28;20091;-88
2023/08/27 10:28:41;;;;;;;4.85;2.45;;;;;;;34.38;29.46;99217.31;4982567;28;20093;-90
2023/08/27 10:31:07;;;;;;;1.95;1.60;;;;;;;34.45;29.09;99218.25;4984559;28;20030;-87
2023/08/27 10:33:33;;;;;;;2.60;1.77;;;;;;;34.56;30.07;99244.31;4973211;28;20035;-84
2023/08/27 10:36:04;;;;;;;5.72;1.90;;;;;;;34.34;29.07;99216.84;4974546;28;20122;-87
2023/08/27 10:38:33;;;;;;;4.00;2.15;;;;;;;34.34;29.00;99233.25;4975914;28;20030;-87
2023/08/27 10:40:59;;;;;;;2.30;1.60;;;;;;;34.30;29.50;99242.03;4978998;28;20126;-87
2023/08/27 10:43:33;;;;;;;2.05;1.75;;;;;;;34.07;28.79;99180.81;4974828;28;20082;-86
2023/08/27 10:46:18;;;;;;;2.00;1.30;;;;;;;33.70;28.37;99207.16;4975334;28;20037;-87
2023/08/27 10:48:52;;;;;;;4.63;2.33;;;;;;;34.07;28.88;99218.28;4981755;28;20033;-89
2023/08/27 10:51:21;;;;;;;9.07;2.00;;;;;;;34.10;28.40;99203.41;4977500;28;20037;-90
2023/08/27 10:53:55;;;;;;;2.15;1.00;;;;;;;34.22;28.65;99215.59;4982713;28;20112;-86
2023/08/27 10:56:35;;;;;;;2.53;1.80;;;;;;;34.63;28.03;99228.78;4990692;28;20497;-87
2023/08/27 10:59:09;;;;;;;3.40;0.90;;;;;;;34.23;27.69;99195.38;4978198;28;20039;-88
2023/08/27 11:01:37;;;;;;;2.80;1.33;;;;;;;34.10;27.45;99186.97;4972575;28;20038;-87
2023/08/27 11:04:06;;;;;;;3.10;1.30;;;;;;;34.43;27.74;99184.72;4970127;28;20465;-86
2023/08/27 11:06:45;;;;;;;2.85;1.98;;;;;;;34.50;28.57;99217.69;4970877;28;20122;-86
2023/08/27 11:09:15;;;;;;;2.00;1.17;;;;;;;34.43;28.25;99212.97;4953433;28;20034;-88
2023/08/27 11:11:51;;;;;;;5.30;2.42;;;;;;;34.43;28.72;99171.03;4953704;28;20500;-87
2023/08/27 11:14:18;;;;;;;3.30;1.90;;;;;;;34.82;29.04;99204.63;4971304;28;20211;-87
2023/08/27 11:16:54;;;;;;;3.95;2.08;;;;;;;34.69;27.06;99211.59;4970804;28;20031;-85
2023/08/27 11:19:28;;;;;;;1.42;0.90;;;;;;;34.54;27.46;99206.16;4971003;28;20083;-89
2023/08/27 11:22:09;;;;;;;3.00;1.37;;;;;;;34.43;27.08;99162.81;4970936;28;20050;-87
2023/08/27 11:24:36;;;;;;;2.78;1.60;;;;;;;34.19;27.35;99169.44;4973314;28;20301;-88
2023/08/27 11:27:02;;;;;;;5.00;1.58;;;;;;;34.35;26.81;99180.19;4970732;28;20117;-86
2023/08/27 11:29:28;;;;;;;4.60;1.65;;;;;;;34.55;26.55;99161.31;4971303;28;20489;-88
2023/08/27 11:31:56;;;;;;;2.88;1.75;;;;;;;34.65;26.00;99173.84;4971464;28;20031;-87
2023/08/27 11:34:22;;;;;;;2.25;1.30;;;;;;;34.66;26.61;99175.53;4971157;28;20118;-88
2023/08/27 11:36:48;;;;;;;3.60;1.77;;;;;;;34.65;26.27;99158.28;4971512;28;20178;-88
2023/08/27 11:39:14;;;;;;;1.50;0.95;;;;;;;34.62;25.22;99180.56;4971133;28;20377;-88
2023/08/27 11:41:44;;;;;;;1.92;1.27;;;;;;;34.63;25.45;99176.78;4971387;28;20113;-89
2023/08/27 11:44:10;;;;;;;11.98;1.63;;;;;;;34.43;25.43;99144.53;4954565;28;20486;-89
2023/08/27 11:46:36;;;;;;;2.28;1.15;;;;;;;34.72;25.44;99147.41;4971707;28;20030;-87
2023/08/27 11:49:02;;;;;;;2.90;1.30;;;;;;;34.88;25.84;99152.69;4972696;28;20109;-89
2023/08/27 11:51:28;;;;;;;2.83;1.30;;;;;;;34.93;25.92;99130.19;4972188;28;20563;-91
2023/08/27 11:53:53;;;;;;;1.40;0.95;;;;;;;34.82;25.04;99139.75;4989502;28;20054;-89
2023/08/27 11:56:19;;;;;;;1.52;1.15;;;;;;;35.03;25.11;99154.50;4990646;28;20049;-90
2023/08/27 11:58:50;;;;;;;1.63;1.25;;;;;;;34.72;25.70;99114.53;4972071;28;20042;-89
2023/08/27 12:01:16;;;;;;;11.82;1.67;;;;;;;34.73;24.67;99128.03;4990713;28;20041;-89
2023/08/27 12:03:43;;;;;;;7.15;1.30;;;;;;;34.76;25.24;99113.16;4990891;28;20121;-86